sensor_id;sensor_type;location;lat;lon;timestamp;pressure;altitude;pressure_sealevel;temperature;humidity
12781;BME280;6454;43.304;24.344;2023-01-28T00:00:33;99969.66;;;2.62;96.45
12781;BME280;6454;43.304;24.344;2023-01-28T00:03:01;99968.94;;;2.66;96.63
12781;BME280;6454;43.304;24.344;2023-01-28T00:05:28;99963.13;;;2.57;96.73
12781;BME280;6454;43.304;24.344;2023-01-28T00:07:55;99968.25;;;2.59;96.80
12781;BME280;6454;43.304;24.344;2023-01-28T00:10:22;99967.53;;;2.64;96.85
12781;BME280;6454;43.304;24.344;2023-01-28T00:12:49;99979.38;;;2.68;96.54
12781;BME280;6454;43.304;24.344;2023-01-28T00:15:16;99975.78;;;2.62;96.50
12781;BME280;6454;43.304;24.344;2023-01-28T00:17:43;99966.97;;;2.62;96.69
12781;BME280;6454;43.304;24.344;2023-01-28T00:20:11;99973.94;;;2.63;96.70
12781;BME280;6454;43.304;24.344;2023-01-28T00:22:38;99967.63;;;2.69;96.15
12781;BME280;6454;43.304;24.344;2023-01-28T00:25:05;99979.97;;;2.70;96.08
12781;BME280;6454;43.304;24.344;2023-01-28T00:27:32;99976.41;;;2.64;96.26
12781;BME280;6454;43.304;24.344;2023-01-28T00:29:59;99976.50;;;2.69;95.69
12781;BME280;6454;43.304;24.344;2023-01-28T00:32:26;99978.91;;;2.71;95.35
12781;BME280;6454;43.304;24.344;2023-01-28T00:34:53;99987.06;;;2.76;95.07
12781;BME280;6454;43.304;24.344;2023-01-28T00:37:21;99983.81;;;2.74;94.91
12781;BME280;6454;43.304;24.344;2023-01-28T00:39:48;99987.88;;;2.76;94.69
12781;BME280;6454;43.304;24.344;2023-01-28T00:42:15;99987.53;;;2.73;94.93
12781;BME280;6454;43.304;24.344;2023-01-28T00:44:42;99994.75;;;2.72;94.93
12781;BME280;6454;43.304;24.344;2023-01-28T00:47:09;99998.22;;;2.73;94.89
12781;BME280;6454;43.304;24.344;2023-01-28T00:49:36;100000.09;;;2.72;94.94
12781;BME280;6454;43.304;24.344;2023-01-28T00:52:03;100000.91;;;2.73;94.84
12781;BME280;6454;43.304;24.344;2023-01-28T00:54:31;99996.13;;;2.75;94.63
12781;BME280;6454;43.304;24.344;2023-01-28T00:56:58;100002.19;;;2.70;94.57
12781;BME280;6454;43.304;24.344;2023-01-28T00:59:24;100003.59;;;2.73;94.40
12781;BME280;6454;43.304;24.344;2023-01-28T01:01:52;100006.75;;;2.70;94.58
12781;BME280;6454;43.304;24.344;2023-01-28T01:04:19;100007.91;;;2.74;94.32
12781;BME280;6454;43.304;24.344;2023-01-28T01:06:51;100010.03;;;2.72;94.35
12781;BME280;6454;43.304;24.344;2023-01-28T01:09:17;100008.94;;;2.73;94.26
12781;BME280;6454;43.304;24.344;2023-01-28T01:11:46;100010.81;;;2.72;94.26
12781;BME280;6454;43.304;24.344;2023-01-28T01:14:12;100010.03;;;2.72;94.53
12781;BME280;6454;43.304;24.344;2023-01-28T01:16:39;100009.41;;;2.70;94.51
12781;BME280;6454;43.304;24.344;2023-01-28T01:19:06;100014.00;;;2.69;94.52
12781;BME280;6454;43.304;24.344;2023-01-28T01:21:33;100014.78;;;2.70;94.62
12781;BME280;6454;43.304;24.344;2023-01-28T01:24:00;100006.41;;;2.66;94.92
12781;BME280;6454;43.304;24.344;2023-01-28T01:26:27;100013.38;;;2.67;94.94
12781;BME280;6454;43.304;24.344;2023-01-28T01:28:55;100018.28;;;2.70;94.96
12781;BME280;6454;43.304;24.344;2023-01-28T01:31:22;100021.19;;;2.69;94.97
12781;BME280;6454;43.304;24.344;2023-01-28T01:33:50;100020.03;;;2.65;94.88
12781;BME280;6454;43.304;24.344;2023-01-28T01:36:17;100009.66;;;2.68;95.16
12781;BME280;6454;43.304;24.344;2023-01-28T01:38:46;100021.91;;;2.64;95.21
12781;BME280;6454;43.304;24.344;2023-01-28T01:41:24;100022.25;;;2.68;95.55
12781;BME280;6454;43.304;24.344;2023-01-28T01:43:53;100019.66;;;2.73;94.99
12781;BME280;6454;43.304;24.344;2023-01-28T01:46:26;100019.44;;;2.74;94.51
12781;BME280;6454;43.304;24.344;2023-01-28T01:49:08;100027.38;;;2.69;94.53
12781;BME280;6454;43.304;24.344;2023-01-28T01:51:39;100024.34;;;2.66;94.95
12781;BME280;6454;43.304;24.344;2023-01-28T01:54:06;100028.06;;;2.65;95.45
12781;BME280;6454;43.304;24.344;2023-01-28T01:56:37;100026.78;;;2.67;95.44
12781;BME280;6454;43.304;24.344;2023-01-28T01:59:09;100027.59;;;2.68;95.22
12781;BME280;6454;43.304;24.344;2023-01-28T02:01:38;100031.81;;;2.64;95.47
12781;BME280;6454;43.304;24.344;2023-01-28T02:04:08;100035.78;;;2.61;95.81
12781;BME280;6454;43.304;24.344;2023-01-28T02:06:36;100031.47;;;2.60;95.85
12781;BME280;6454;43.304;24.344;2023-01-28T02:11:45;100040.56;;;2.59;96.19
12781;BME280;6454;43.304;24.344;2023-01-28T02:14:12;100034.69;;;2.62;96.08
12781;BME280;6454;43.304;24.344;2023-01-28T02:16:41;100037.63;;;2.60;95.98
12781;BME280;6454;43.304;24.344;2023-01-28T02:19:08;100038.91;;;2.58;96.26
12781;BME280;6454;43.304;24.344;2023-01-28T02:21:59;100041.59;;;2.58;96.71
12781;BME280;6454;43.304;24.344;2023-01-28T02:24:53;100033.56;;;2.58;96.41
12781;BME280;6454;43.304;24.344;2023-01-28T02:27:28;100041.25;;;2.54;96.69
12781;BME280;6454;43.304;24.344;2023-01-28T02:30:03;100043.34;;;2.52;96.78
12781;BME280;6454;43.304;24.344;2023-01-28T02:32:36;100047.31;;;2.50;96.92
12781;BME280;6454;43.304;24.344;2023-01-28T02:35:11;100044.63;;;2.50;96.91
12781;BME280;6454;43.304;24.344;2023-01-28T02:37:43;100047.88;;;2.52;96.82
12781;BME280;6454;43.304;24.344;2023-01-28T02:40:15;100048.72;;;2.52;96.70
12781;BME280;6454;43.304;24.344;2023-01-28T02:42:45;100047.88;;;2.52;96.69
12781;BME280;6454;43.304;24.344;2023-01-28T02:45:22;100045.81;;;2.54;96.22
12781;BME280;6454;43.304;24.344;2023-01-28T02:47:50;100042.88;;;2.55;96.00
12781;BME280;6454;43.304;24.344;2023-01-28T02:50:25;100036.50;;;2.56;95.67
12781;BME280;6454;43.304;24.344;2023-01-28T02:53:04;100035.31;;;2.52;95.79
12781;BME280;6454;43.304;24.344;2023-01-28T02:55:58;100043.34;;;2.52;95.98
12781;BME280;6454;43.304;24.344;2023-01-28T02:58:35;100039.28;;;2.50;96.12
12781;BME280;6454;43.304;24.344;2023-01-28T03:01:10;100045.47;;;2.50;96.06
12781;BME280;6454;43.304;24.344;2023-01-28T03:03:46;100043.81;;;2.49;96.25
12781;BME280;6454;43.304;24.344;2023-01-28T03:06:20;100045.47;;;2.50;95.88
12781;BME280;6454;43.304;24.344;2023-01-28T03:08:52;100050.56;;;2.52;95.68
12781;BME280;6454;43.304;24.344;2023-01-28T03:11:40;100052.44;;;2.51;95.55
12781;BME280;6454;43.304;24.344;2023-01-28T03:14:25;100049.78;;;2.51;95.50
12781;BME280;6454;43.304;24.344;2023-01-28T03:17:16;100052.44;;;2.51;95.56
12781;BME280;6454;43.304;24.344;2023-01-28T03:20:03;100059.41;;;2.52;95.58
12781;BME280;6454;43.304;24.344;2023-01-28T03:22:50;100057.31;;;2.54;95.47
12781;BME280;6454;43.304;24.344;2023-01-28T03:25:39;100058.38;;;2.53;95.27
12781;BME280;6454;43.304;24.344;2023-01-28T03:28:24;100061.06;;;2.53;95.05
12781;BME280;6454;43.304;24.344;2023-01-28T03:31:12;100071.19;;;2.51;95.18
12781;BME280;6454;43.304;24.344;2023-01-28T03:33:59;100067.91;;;2.49;95.36
12781;BME280;6454;43.304;24.344;2023-01-28T03:36:45;100061.97;;;2.47;95.50
12781;BME280;6454;43.304;24.344;2023-01-28T03:39:13;100060.69;;;2.50;95.44
12781;BME280;6454;43.304;24.344;2023-01-28T03:41:39;100066.88;;;2.50;95.37
12781;BME280;6454;43.304;24.344;2023-01-28T03:44:07;100059.88;;;2.49;95.49
12781;BME280;6454;43.304;24.344;2023-01-28T03:46:50;100070.59;;;2.49;95.26
12781;BME280;6454;43.304;24.344;2023-01-28T03:49:19;100070.59;;;2.49;95.25
12781;BME280;6454;43.304;24.344;2023-01-28T03:51:45;100071.97;;;2.52;95.03
12781;BME280;6454;43.304;24.344;2023-01-28T03:54:12;100073.38;;;2.54;94.12
12781;BME280;6454;43.304;24.344;2023-01-28T03:56:39;100073.63;;;2.53;93.61
12781;BME280;6454;43.304;24.344;2023-01-28T03:59:06;100073.75;;;2.46;94.13
12781;BME280;6454;43.304;24.344;2023-01-28T04:01:33;100068.97;;;2.48;94.01
12781;BME280;6454;43.304;24.344;2023-01-28T04:04:00;100073.50;;;2.48;94.41
12781;BME280;6454;43.304;24.344;2023-01-28T04:06:29;100081.53;;;2.48;94.50
12781;BME280;6454;43.304;24.344;2023-01-28T04:08:55;100082.81;;;2.45;94.47
12781;BME280;6454;43.304;24.344;2023-01-28T04:11:24;100083.88;;;2.44;94.67
12781;BME280;6454;43.304;24.344;2023-01-28T04:13:51;100087.59;;;2.43;94.79
12781;BME280;6454;43.304;24.344;2023-01-28T04:16:18;100095.19;;;2.46;94.36
12781;BME280;6454;43.304;24.344;2023-01-28T04:18:46;100091.22;;;2.49;93.88
12781;BME280;6454;43.304;24.344;2023-01-28T04:21:13;100092.00;;;2.49;94.07
12781;BME280;6454;43.304;24.344;2023-01-28T04:23:41;100102.13;;;2.47;93.92
12781;BME280;6454;43.304;24.344;2023-01-28T04:26:08;100100.03;;;2.49;93.91
12781;BME280;6454;43.304;24.344;2023-01-28T04:28:34;100097.25;;;2.44;94.11
12781;BME280;6454;43.304;24.344;2023-01-28T04:31:01;100103.22;;;2.46;94.23
12781;BME280;6454;43.304;24.344;2023-01-28T04:33:28;100095.97;;;2.47;93.94
12781;BME280;6454;43.304;24.344;2023-01-28T04:35:55;100099.47;;;2.47;93.79
12781;BME280;6454;43.304;24.344;2023-01-28T04:38:22;100114.72;;;2.47;93.91
12781;BME280;6454;43.304;24.344;2023-01-28T04:40:51;100104.00;;;2.47;93.96
12781;BME280;6454;43.304;24.344;2023-01-28T04:43:18;100101.56;;;2.45;94.14
12781;BME280;6454;43.304;24.344;2023-01-28T04:45:45;100111.81;;;2.48;94.27
12781;BME280;6454;43.304;24.344;2023-01-28T04:48:12;100109.34;;;2.47;93.92
12781;BME280;6454;43.304;24.344;2023-01-28T04:50:40;100117.16;;;2.48;94.07
12781;BME280;6454;43.304;24.344;2023-01-28T04:53:07;100112.28;;;2.45;93.86
12781;BME280;6454;43.304;24.344;2023-01-28T04:55:34;100120.31;;;2.45;93.65
12781;BME280;6454;43.304;24.344;2023-01-28T04:58:02;100124.84;;;2.45;93.82
12781;BME280;6454;43.304;24.344;2023-01-28T05:00:29;100115.88;;;2.39;93.69
12781;BME280;6454;43.304;24.344;2023-01-28T05:02:56;100132.06;;;2.44;93.85
12781;BME280;6454;43.304;24.344;2023-01-28T05:05:23;100134.97;;;2.43;94.08
12781;BME280;6454;43.304;24.344;2023-01-28T05:07:50;100134.16;;;2.42;94.29
12781;BME280;6454;43.304;24.344;2023-01-28T05:10:18;100145.69;;;2.43;94.46
12781;BME280;6454;43.304;24.344;2023-01-28T05:12:46;100148.59;;;2.41;94.55
12781;BME280;6454;43.304;24.344;2023-01-28T05:15:16;100136.38;;;2.34;94.66
12781;BME280;6454;43.304;24.344;2023-01-28T05:17:43;100148.47;;;2.48;94.64
12781;BME280;6454;43.304;24.344;2023-01-28T05:20:12;100157.31;;;2.48;94.28
12781;BME280;6454;43.304;24.344;2023-01-28T05:22:40;100150.91;;;2.49;94.28
12781;BME280;6454;43.304;24.344;2023-01-28T05:25:08;100152.78;;;2.49;94.28
12781;BME280;6454;43.304;24.344;2023-01-28T05:27:35;100154.66;;;2.48;94.30
12781;BME280;6454;43.304;24.344;2023-01-28T05:30:02;100155.47;;;2.49;94.42
12781;BME280;6454;43.304;24.344;2023-01-28T05:32:30;100155.22;;;2.50;94.24
12781;BME280;6454;43.304;24.344;2023-01-28T05:34:57;100154.66;;;2.48;94.00
12781;BME280;6454;43.304;24.344;2023-01-28T05:37:24;100165.34;;;2.48;94.09
12781;BME280;6454;43.304;24.344;2023-01-28T05:39:50;100161.16;;;2.52;93.96
12781;BME280;6454;43.304;24.344;2023-01-28T05:42:17;100170.47;;;2.50;93.52
12781;BME280;6454;43.304;24.344;2023-01-28T05:44:45;100175.63;;;2.51;93.46
12781;BME280;6454;43.304;24.344;2023-01-28T05:47:12;100178.41;;;2.56;92.79
12781;BME280;6454;43.304;24.344;2023-01-28T05:49:40;100180.47;;;2.54;92.78
12781;BME280;6454;43.304;24.344;2023-01-28T05:52:07;100182.00;;;2.50;92.99
12781;BME280;6454;43.304;24.344;2023-01-28T05:54:33;100180.97;;;2.51;92.83
12781;BME280;6454;43.304;24.344;2023-01-28T05:57:00;100182.47;;;2.47;92.98
12781;BME280;6454;43.304;24.344;2023-01-28T05:59:27;100185.13;;;2.47;93.14
12781;BME280;6454;43.304;24.344;2023-01-28T06:01:53;100187.59;;;2.49;93.10
12781;BME280;6454;43.304;24.344;2023-01-28T06:04:20;100193.06;;;2.54;92.52
12781;BME280;6454;43.304;24.344;2023-01-28T06:06:48;100195.97;;;2.52;92.31
12781;BME280;6454;43.304;24.344;2023-01-28T06:09:15;100190.72;;;2.57;92.22
12781;BME280;6454;43.304;24.344;2023-01-28T06:11:42;100193.28;;;2.52;92.05
12781;BME280;6454;43.304;24.344;2023-01-28T06:14:10;100196.66;;;2.48;92.59
12781;BME280;6454;43.304;24.344;2023-01-28T06:16:36;100195.50;;;2.55;92.56
12781;BME280;6454;43.304;24.344;2023-01-28T06:19:03;100199.22;;;2.54;92.73
12781;BME280;6454;43.304;24.344;2023-01-28T06:21:30;100209.47;;;2.57;92.83
12781;BME280;6454;43.304;24.344;2023-01-28T06:23:58;100215.06;;;2.56;93.08
12781;BME280;6454;43.304;24.344;2023-01-28T06:26:25;100216.09;;;2.55;93.31
12781;BME280;6454;43.304;24.344;2023-01-28T06:28:52;100222.28;;;2.55;93.56
12781;BME280;6454;43.304;24.344;2023-01-28T06:31:18;100221.13;;;2.63;93.41
12781;BME280;6454;43.304;24.344;2023-01-28T06:33:45;100216.22;;;2.60;93.25
12781;BME280;6454;43.304;24.344;2023-01-28T06:36:12;100214.94;;;2.63;93.72
12781;BME280;6454;43.304;24.344;2023-01-28T06:38:39;100222.16;;;2.62;93.91
12781;BME280;6454;43.304;24.344;2023-01-28T06:41:07;100221.13;;;2.63;94.36
12781;BME280;6454;43.304;24.344;2023-01-28T06:43:33;100226.84;;;2.67;94.39
12781;BME280;6454;43.304;24.344;2023-01-28T06:46:00;100222.28;;;2.67;94.41
12781;BME280;6454;43.304;24.344;2023-01-28T06:48:27;100229.75;;;2.77;93.95
12781;BME280;6454;43.304;24.344;2023-01-28T06:50:54;100228.22;;;2.81;93.18
12781;BME280;6454;43.304;24.344;2023-01-28T06:53:21;100231.94;;;2.80;93.07
12781;BME280;6454;43.304;24.344;2023-01-28T06:55:48;100232.50;;;2.82;93.27
12781;BME280;6454;43.304;24.344;2023-01-28T06:58:16;100236.84;;;2.83;93.25
12781;BME280;6454;43.304;24.344;2023-01-28T07:00:43;100233.44;;;2.87;92.98
12781;BME280;6454;43.304;24.344;2023-01-28T07:03:10;100233.91;;;2.84;93.09
12781;BME280;6454;43.304;24.344;2023-01-28T07:05:36;100241.84;;;2.91;93.19
12781;BME280;6454;43.304;24.344;2023-01-28T07:08:03;100226.38;;;2.81;93.11
12781;BME280;6454;43.304;24.344;2023-01-28T07:10:30;100240.56;;;2.82;93.33
12781;BME280;6454;43.304;24.344;2023-01-28T07:12:57;100241.16;;;2.84;93.56
12781;BME280;6454;43.304;24.344;2023-01-28T07:15:25;100244.97;;;2.88;93.22
12781;BME280;6454;43.304;24.344;2023-01-28T07:17:52;100248.03;;;2.91;93.33
12781;BME280;6454;43.304;24.344;2023-01-28T07:20:19;100248.25;;;2.90;93.42
12781;BME280;6454;43.304;24.344;2023-01-28T07:22:46;100251.63;;;2.85;93.61
12781;BME280;6454;43.304;24.344;2023-01-28T07:25:14;100255.00;;;2.92;92.72
12781;BME280;6454;43.304;24.344;2023-01-28T07:27:46;100256.41;;;2.95;92.59
12781;BME280;6454;43.304;24.344;2023-01-28T07:30:14;100262.31;;;2.97;92.49
12781;BME280;6454;43.304;24.344;2023-01-28T07:32:42;100264.53;;;3.00;91.60
12781;BME280;6454;43.304;24.344;2023-01-28T07:35:09;100256.75;;;2.98;91.33
12781;BME280;6454;43.304;24.344;2023-01-28T07:37:36;100261.88;;;3.00;91.73
12781;BME280;6454;43.304;24.344;2023-01-28T07:40:03;100266.31;;;3.06;91.26
12781;BME280;6454;43.304;24.344;2023-01-28T07:42:30;100263.25;;;3.02;91.12
12781;BME280;6454;43.304;24.344;2023-01-28T07:44:57;100269.81;;;3.06;91.30
12781;BME280;6454;43.304;24.344;2023-01-28T07:47:24;100267.69;;;3.08;91.07
12781;BME280;6454;43.304;24.344;2023-01-28T07:49:52;100262.19;;;3.15;90.16
12781;BME280;6454;43.304;24.344;2023-01-28T07:52:19;100275.13;;;3.18;90.18
12781;BME280;6454;43.304;24.344;2023-01-28T07:54:45;100265.69;;;3.27;89.86
12781;BME280;6454;43.304;24.344;2023-01-28T07:57:12;100269.41;;;3.26;90.04
12781;BME280;6454;43.304;24.344;2023-01-28T07:59:39;100279.31;;;3.25;90.40
12781;BME280;6454;43.304;24.344;2023-01-28T08:02:09;100272.78;;;3.33;90.04
12781;BME280;6454;43.304;24.344;2023-01-28T08:04:36;100275.78;;;3.37;89.86
12781;BME280;6454;43.304;24.344;2023-01-28T08:07:06;100283.25;;;3.35;89.80
12781;BME280;6454;43.304;24.344;2023-01-28T08:09:32;100278.97;;;3.34;89.95
12781;BME280;6454;43.304;24.344;2023-01-28T08:12:00;100280.69;;;3.40;90.35
12781;BME280;6454;43.304;24.344;2023-01-28T08:14:28;100282.66;;;3.44;90.11
12781;BME280;6454;43.304;24.344;2023-01-28T08:16:54;100286.97;;;3.45;89.93
12781;BME280;6454;43.304;24.344;2023-01-28T08:19:21;100292.91;;;3.47;90.19
12781;BME280;6454;43.304;24.344;2023-01-28T08:21:48;100287.56;;;3.47;90.20
12781;BME280;6454;43.304;24.344;2023-01-28T08:24:16;100297.00;;;3.50;90.26
12781;BME280;6454;43.304;24.344;2023-01-28T08:26:43;100295.94;;;3.51;90.29
12781;BME280;6454;43.304;24.344;2023-01-28T08:29:10;100300.03;;;3.53;90.28
12781;BME280;6454;43.304;24.344;2023-01-28T08:31:37;100293.38;;;3.56;89.96
12781;BME280;6454;43.304;24.344;2023-01-28T08:34:04;100296.63;;;3.58;90.09
12781;BME280;6454;43.304;24.344;2023-01-28T08:36:31;100301.53;;;3.61;89.98
12781;BME280;6454;43.304;24.344;2023-01-28T08:38:57;100306.19;;;3.65;89.09
12781;BME280;6454;43.304;24.344;2023-01-28T08:41:26;100300.25;;;3.63;89.28
12781;BME280;6454;43.304;24.344;2023-01-28T08:43:52;100300.34;;;3.68;89.26
12781;BME280;6454;43.304;24.344;2023-01-28T08:46:19;100306.38;;;3.75;88.78
12781;BME280;6454;43.304;24.344;2023-01-28T08:48:48;100259.44;;;3.50;88.33
12781;BME280;6454;43.304;24.344;2023-01-28T08:51:15;100303.09;;;3.85;88.29
12781;BME280;6454;43.304;24.344;2023-01-28T08:53:42;100303.34;;;3.83;88.20
12781;BME280;6454;43.304;24.344;2023-01-28T08:56:08;100289.72;;;3.73;88.07
12781;BME280;6454;43.304;24.344;2023-01-28T08:58:37;100309.03;;;3.87;87.54
12781;BME280;6454;43.304;24.344;2023-01-28T09:01:04;100318.81;;;3.93;86.84
12781;BME280;6454;43.304;24.344;2023-01-28T09:03:31;100316.69;;;3.95;87.45
12781;BME280;6454;43.304;24.344;2023-01-28T09:05:59;100309.69;;;3.94;87.94
12781;BME280;6454;43.304;24.344;2023-01-28T09:08:26;100316.22;;;3.98;87.92
12781;BME280;6454;43.304;24.344;2023-01-28T09:10:54;100289.38;;;3.70;88.23
12781;BME280;6454;43.304;24.344;2023-01-28T09:13:21;100313.44;;;3.93;88.41
12781;BME280;6454;43.304;24.344;2023-01-28T09:15:49;100305.41;;;3.81;89.18
12781;BME280;6454;43.304;24.344;2023-01-28T09:18:16;100285.56;;;3.54;89.02
12781;BME280;6454;43.304;24.344;2023-01-28T09:20:43;100305.25;;;3.71;89.97
12781;BME280;6454;43.304;24.344;2023-01-28T09:23:11;100278.13;;;3.45;90.05
12781;BME280;6454;43.304;24.344;2023-01-28T09:25:37;100305.56;;;3.75;90.08
12781;BME280;6454;43.304;24.344;2023-01-28T09:28:04;100296.59;;;3.69;90.21
12781;BME280;6454;43.304;24.344;2023-01-28T09:30:31;100306.34;;;3.87;89.87
12781;BME280;6454;43.304;24.344;2023-01-28T09:33:00;100306.72;;;3.79;89.86
12781;BME280;6454;43.304;24.344;2023-01-28T09:35:27;100300.78;;;3.77;90.10
12781;BME280;6454;43.304;24.344;2023-01-28T09:37:56;100309.16;;;3.80;89.89
12781;BME280;6454;43.304;24.344;2023-01-28T09:40:31;100309.63;;;3.77;89.83
12781;BME280;6454;43.304;24.344;2023-01-28T09:43:07;100313.00;;;3.84;89.59
12781;BME280;6454;43.304;24.344;2023-01-28T09:45:39;100311.91;;;3.97;89.27
12781;BME280;6454;43.304;24.344;2023-01-28T09:48:13;100313.63;;;4.03;88.84
12781;BME280;6454;43.304;24.344;2023-01-28T09:50:45;100273.72;;;3.78;88.70
12781;BME280;6454;43.304;24.344;2023-01-28T09:53:18;100308.13;;;4.10;88.96
12781;BME280;6454;43.304;24.344;2023-01-28T09:55:48;100311.88;;;4.09;89.58
12781;BME280;6454;43.304;24.344;2023-01-28T09:58:17;100308.75;;;4.00;90.04
12781;BME280;6454;43.304;24.344;2023-01-28T10:00:52;100312.72;;;3.98;90.16
12781;BME280;6454;43.304;24.344;2023-01-28T10:03:40;100314.38;;;3.99;90.41
12781;BME280;6454;43.304;24.344;2023-01-28T10:06:18;100307.09;;;3.99;90.01
12781;BME280;6454;43.304;24.344;2023-01-28T10:09:07;100308.41;;;3.97;90.70
12781;BME280;6454;43.304;24.344;2023-01-28T10:11:53;100313.75;;;3.97;90.89
12781;BME280;6454;43.304;24.344;2023-01-28T10:14:43;100309.56;;;4.01;90.74
12781;BME280;6454;43.304;24.344;2023-01-28T10:17:15;100299.56;;;3.84;90.64
12781;BME280;6454;43.304;24.344;2023-01-28T10:19:47;100306.44;;;3.92;90.62
12781;BME280;6454;43.304;24.344;2023-01-28T10:22:18;100304.81;;;3.91;90.75
12781;BME280;6454;43.304;24.344;2023-01-28T10:24:50;100306.13;;;3.77;91.38
12781;BME280;6454;43.304;24.344;2023-01-28T10:27:22;100306.13;;;3.77;91.87
12781;BME280;6454;43.304;24.344;2023-01-28T10:29:50;100313.97;;;3.78;92.22
12781;BME280;6454;43.304;24.344;2023-01-28T10:32:22;100310.09;;;3.74;92.77
12781;BME280;6454;43.304;24.344;2023-01-28T10:34:53;100311.41;;;3.72;92.88
12781;BME280;6454;43.304;24.344;2023-01-28T10:37:20;100310.00;;;3.69;93.18
12781;BME280;6454;43.304;24.344;2023-01-28T10:39:47;100308.38;;;3.68;93.72
12781;BME280;6454;43.304;24.344;2023-01-28T10:42:19;100304.53;;;3.64;94.10
12781;BME280;6454;43.304;24.344;2023-01-28T10:44:51;100306.28;;;3.70;93.89
12781;BME280;6454;43.304;24.344;2023-01-28T10:47:26;100303.59;;;3.70;94.05
12781;BME280;6454;43.304;24.344;2023-01-28T10:49:57;100297.09;;;3.66;94.78
12781;BME280;6454;43.304;24.344;2023-01-28T10:52:25;100305.41;;;3.81;94.35
12781;BME280;6454;43.304;24.344;2023-01-28T10:55:03;100304.47;;;3.87;93.86
12781;BME280;6454;43.304;24.344;2023-01-28T10:57:32;100314.75;;;3.90;93.96
12781;BME280;6454;43.304;24.344;2023-01-28T11:00:09;100314.25;;;3.94;93.50
12781;BME280;6454;43.304;24.344;2023-01-28T11:02:37;100302.94;;;3.91;93.50
12781;BME280;6454;43.304;24.344;2023-01-28T11:05:14;100303.66;;;3.87;93.29
12781;BME280;6454;43.304;24.344;2023-01-28T11:07:42;100315.97;;;4.00;93.13
12781;BME280;6454;43.304;24.344;2023-01-28T11:10:24;100304.00;;;3.90;93.16
12781;BME280;6454;43.304;24.344;2023-01-28T11:12:55;100307.72;;;3.89;92.94
12781;BME280;6454;43.304;24.344;2023-01-28T11:15:22;100314.50;;;3.92;92.31
12781;BME280;6454;43.304;24.344;2023-01-28T11:17:54;100307.91;;;4.00;92.32
12781;BME280;6454;43.304;24.344;2023-01-28T11:20:26;100307.59;;;3.96;91.87
12781;BME280;6454;43.304;24.344;2023-01-28T11:22:54;100306.50;;;4.09;92.46
12781;BME280;6454;43.304;24.344;2023-01-28T11:25:27;100310.81;;;4.10;92.45
12781;BME280;6454;43.304;24.344;2023-01-28T11:27:55;100311.88;;;4.09;92.48
12781;BME280;6454;43.304;24.344;2023-01-28T11:30:24;100307.06;;;4.11;92.38
12781;BME280;6454;43.304;24.344;2023-01-28T11:33:04;100308.50;;;4.02;91.94
12781;BME280;6454;43.304;24.344;2023-01-28T11:35:34;100306.88;;;4.01;92.17
12781;BME280;6454;43.304;24.344;2023-01-28T11:38:01;100310.59;;;4.11;92.60
12781;BME280;6454;43.304;24.344;2023-01-28T11:40:28;100301.34;;;4.07;92.42
12781;BME280;6454;43.304;24.344;2023-01-28T11:42:55;100299.16;;;4.04;92.60
12781;BME280;6454;43.304;24.344;2023-01-28T11:45:31;100299.56;;;3.96;92.88
12781;BME280;6454;43.304;24.344;2023-01-28T11:50:59;100298.34;;;4.04;93.56
12781;BME280;6454;43.304;24.344;2023-01-28T11:53:47;100304.03;;;4.07;93.97
12781;BME280;6454;43.304;24.344;2023-01-28T11:56:44;100302.44;;;4.06;94.07
12781;BME280;6454;43.304;24.344;2023-01-28T11:59:43;100299.22;;;4.21;93.28
12781;BME280;6454;43.304;24.344;2023-01-28T12:02:27;100300.59;;;4.23;93.45
12781;BME280;6454;43.304;24.344;2023-01-28T12:05:11;100304.41;;;4.27;93.04
12781;BME280;6454;43.304;24.344;2023-01-28T12:07:47;100299.47;;;4.36;92.94
12781;BME280;6454;43.304;24.344;2023-01-28T12:10:25;100302.00;;;4.42;92.48
12781;BME280;6454;43.304;24.344;2023-01-28T12:13:15;100308.50;;;4.46;92.24
12781;BME280;6454;43.304;24.344;2023-01-28T12:16:17;100296.47;;;4.49;91.88
12781;BME280;6454;43.304;24.344;2023-01-28T12:19:07;100309.00;;;4.43;91.40
12781;BME280;6454;43.304;24.344;2023-01-28T12:21:50;100303.97;;;4.47;91.40
12781;BME280;6454;43.304;24.344;2023-01-28T12:24:34;100302.00;;;4.42;91.71
12781;BME280;6454;43.304;24.344;2023-01-28T12:27:07;100309.59;;;4.45;92.09
12781;BME280;6454;43.304;24.344;2023-01-28T12:29:46;100304.69;;;4.42;90.15
12781;BME280;6454;43.304;24.344;2023-01-28T12:32:30;100301.84;;;4.49;89.33
12781;BME280;6454;43.304;24.344;2023-01-28T12:35:21;100313.00;;;4.57;89.12
12781;BME280;6454;43.304;24.344;2023-01-28T12:37:59;100314.97;;;4.62;88.65
12781;BME280;6454;43.304;24.344;2023-01-28T12:40:48;100310.88;;;4.60;88.55
12781;BME280;6454;43.304;24.344;2023-01-28T12:43:20;100313.66;;;4.65;87.95
12781;BME280;6454;43.304;24.344;2023-01-28T12:45:51;100312.28;;;4.62;86.43
12781;BME280;6454;43.304;24.344;2023-01-28T12:48:25;100307.38;;;4.59;86.55
12781;BME280;6454;43.304;24.344;2023-01-28T12:50:57;100315.03;;;4.67;85.55
12781;BME280;6454;43.304;24.344;2023-01-28T12:53:30;100318.81;;;4.66;85.00
12781;BME280;6454;43.304;24.344;2023-01-28T12:56:07;100320.34;;;4.62;86.70
12781;BME280;6454;43.304;24.344;2023-01-28T12:58:43;100329.38;;;4.56;87.12
12781;BME280;6454;43.304;24.344;2023-01-28T13:01:15;100308.19;;;4.43;87.67
12781;BME280;6454;43.304;24.344;2023-01-28T13:03:50;100328.59;;;4.44;87.88
12781;BME280;6454;43.304;24.344;2023-01-28T13:06:23;100335.22;;;4.53;87.80
12781;BME280;6454;43.304;24.344;2023-01-28T13:08:59;100328.13;;;4.47;88.12
12781;BME280;6454;43.304;24.344;2023-01-28T13:11:32;100333.50;;;4.47;88.38
12781;BME280;6454;43.304;24.344;2023-01-28T13:14:01;100331.38;;;4.49;88.27
12781;BME280;6454;43.304;24.344;2023-01-28T13:16:29;100337.81;;;4.48;88.22
12781;BME280;6454;43.304;24.344;2023-01-28T13:19:05;100331.28;;;4.44;88.82
12781;BME280;6454;43.304;24.344;2023-01-28T13:21:33;100313.03;;;4.29;88.79
12781;BME280;6454;43.304;24.344;2023-01-28T13:24:17;100336.53;;;4.50;88.85